createdAt,value
2022-08-09T00:00:05.962Z,5.5
2022-08-09T00:06:12.101Z,4.3
2022-08-09T00:10:17.862Z,4.3
2022-08-09T00:15:17.382Z,4.3
2022-08-09T00:20:21.927Z,4.8
2022-08-09T00:25:32.147Z,4.9
2022-08-09T00:30:37.903Z,3.9
2022-08-09T00:35:43.559Z,3.5
2022-08-09T00:40:52.938Z,3.6
2022-08-09T00:45:54.008Z,4.8
2022-08-09T00:50:59.859Z,4.8
2022-08-09T00:56:09.414Z,4.1
2022-08-09T01:01:05.448Z,4.1
2022-08-09T01:06:13.872Z,4.1
2022-08-09T01:11:10.982Z,4.6
2022-08-09T01:16:20.026Z,3.8
2022-08-09T01:21:25.591Z,4.1
2022-08-09T01:26:29.006Z,3.8
2022-08-09T01:32:28.085Z,3.9
2022-08-09T01:36:36.651Z,4.2
2022-08-09T01:41:53.899Z,4.4
2022-08-09T01:46:46.971Z,4.8
2022-08-09T01:51:44.527Z,4.7
2022-08-09T01:56:47.272Z,4.7
2022-08-09T02:01:58.820Z,3.9
2022-08-09T02:07:05.142Z,3.6
2022-08-09T02:12:09.840Z,4
2022-08-09T02:17:55.118Z,4.4
2022-08-09T02:22:27.449Z,3.9
2022-08-09T02:27:27.412Z,3.6
2022-08-09T02:32:29.509Z,4
2022-08-09T02:37:36.595Z,3.5
2022-08-09T02:42:35.951Z,5.2
2022-08-09T02:47:46.241Z,4.2
2022-08-09T02:52:43.601Z,4.8
2022-08-09T02:57:59.878Z,6.3
2022-08-09T03:02:58.852Z,4.8
2022-08-09T03:08:03.869Z,6.4
2022-08-09T03:13:08.359Z,6
2022-08-09T03:18:19.146Z,4
2022-08-09T03:23:24.265Z,5.5
2022-08-09T03:28:19.307Z,5.6
2022-08-09T03:33:23.715Z,5.3
2022-08-09T03:38:30.321Z,4.6
2022-08-09T03:43:33.241Z,7.5
2022-08-09T03:48:43.073Z,4.5
2022-08-09T03:53:45.373Z,4.5
2022-08-09T03:58:50.989Z,4.3
2022-08-09T04:04:00.701Z,4.6
2022-08-09T04:09:42.369Z,7.1
2022-08-09T04:14:36.853Z,7.4
2022-08-09T04:19:30.156Z,4.5
2022-08-09T04:24:22.401Z,4.9
2022-08-09T04:29:23.077Z,5.3
2022-08-09T04:34:30.520Z,5.3
2022-08-09T04:39:24.639Z,4
2022-08-09T04:44:29.852Z,4.7
2022-08-09T04:49:40.357Z,7.4
2022-08-09T04:54:37.797Z,9.4
2022-08-09T04:59:40.405Z,7.8
2022-08-09T05:04:53.194Z,7.7
2022-08-09T05:10:01.925Z,7
2022-08-09T05:15:11.129Z,6.6
2022-08-09T05:20:06.205Z,7
2022-08-09T05:25:09.240Z,6.2
2022-08-09T05:30:11.474Z,6.5
2022-08-09T05:35:21.888Z,12.4
2022-08-09T05:40:25.261Z,8.7
2022-08-09T05:45:43.720Z,15.3
2022-08-09T05:50:39.797Z,9.7
2022-08-09T05:55:36.552Z,7
2022-08-09T06:00:39.799Z,19.6
2022-08-09T06:05:49.816Z,36.2
2022-08-09T06:10:49.806Z,42.3
2022-08-09T06:15:54.018Z,111.4
2022-08-09T06:21:04.185Z,32.4
2022-08-09T06:26:07.493Z,63.8
2022-08-09T06:31:12.642Z,71.3
2022-08-09T06:36:15.478Z,61
2022-08-09T06:41:20.384Z,464.7
2022-08-09T06:46:39.370Z,974.3
2022-08-09T06:51:25.180Z,1083.8
2022-08-09T06:56:31.740Z,1072.1
2022-08-09T07:01:35.785Z,597.7
2022-08-09T07:06:35.826Z,11
2022-08-09T07:11:45.448Z,794.3
2022-08-09T07:16:48.004Z,1104.4
2022-08-09T07:21:50.218Z,1063
2022-08-09T07:26:52.673Z,1022.1
2022-08-09T07:31:55.124Z,1002.9
2022-08-09T07:37:02.564Z,1065
2022-08-09T07:42:06.332Z,1092.4
2022-08-09T07:47:10.009Z,5.4
2022-08-09T07:52:17.936Z,4.5
2022-08-09T07:57:33.693Z,4.8
2022-08-09T08:02:29.155Z,4.9
2022-08-09T08:08:06.944Z,7.1
2022-08-09T08:12:35.201Z,12.2
2022-08-09T08:17:52.818Z,10.8
2022-08-09T08:22:40.591Z,6.2
2022-08-09T08:27:49.791Z,5.1
2022-08-09T08:32:54.025Z,6.8
2022-08-09T08:37:59.759Z,5.2
2022-08-09T08:43:08.858Z,1067.9
2022-08-09T08:48:05.814Z,1029.7
2022-08-09T08:53:12.093Z,1057.6
2022-08-09T08:58:17.210Z,1089.6
2022-08-09T09:03:22.916Z,1098.2
2022-08-09T09:08:29.626Z,1067.8
2022-08-09T09:13:34.592Z,1094.2
2022-08-09T09:18:39.422Z,1098.7
2022-08-09T09:23:39.230Z,1043.7
2022-08-09T09:29:02.729Z,1097.8
2022-08-09T09:33:56.601Z,1095.6
2022-08-09T09:38:51.688Z,1093.4
2022-08-09T09:44:10.476Z,1109.9
2022-08-09T09:49:01.680Z,1103.5
2022-08-09T09:54:14.179Z,1116
2022-08-09T09:59:13.140Z,1101.9
2022-08-09T10:04:15.028Z,1096.7
2022-08-09T10:09:23.945Z,1054.8
2022-08-09T10:14:33.269Z,1133.3
2022-08-09T10:19:38.845Z,1131.7
2022-08-09T10:24:41.676Z,1123.1
2022-08-09T10:30:29.699Z,1141.8
2022-08-09T10:34:48.072Z,739.3
2022-08-09T10:39:55.338Z,1200
2022-08-09T10:45:00.388Z,1248.5
2022-08-09T10:50:06.521Z,847.1
2022-08-09T10:55:10.714Z,334.8
2022-08-09T11:00:16.727Z,17.2
2022-08-09T11:05:24.788Z,11.5
2022-08-09T11:10:27.022Z,6.2
2022-08-09T11:15:31.658Z,9.6
2022-08-09T11:20:28.911Z,7.4
2022-08-09T11:25:45.466Z,6.6
2022-08-09T11:30:47.909Z,27
2022-08-09T11:35:54.189Z,55.9
2022-08-09T11:40:57.297Z,130.1
2022-08-09T11:46:01.979Z,54
2022-08-09T11:51:19.664Z,37.6
2022-08-09T11:56:13.194Z,848.5
2022-08-09T12:01:37.963Z,204.4
2022-08-09T12:06:26.580Z,8
2022-08-09T12:11:26.959Z,8.9
2022-08-09T12:16:38.002Z,27.4
2022-08-09T12:21:48.351Z,13.4
2022-08-09T12:29:01.130Z,69.9
2022-08-09T12:36:58.751Z,1362
2022-08-09T12:42:00.490Z,67
2022-08-09T12:47:04.886Z,8.2
2022-08-09T12:52:12.369Z,7.6
2022-08-09T12:57:19.147Z,10.8
2022-08-09T13:02:25.275Z,8.7
2022-08-09T13:07:50.511Z,9.9
2022-08-09T13:12:39.863Z,176.5
2022-08-09T13:17:44.678Z,515.4
2022-08-09T13:23:02.265Z,594
2022-08-09T13:27:55.564Z,623.9
2022-08-09T13:33:03.301Z,168.4
2022-08-09T13:38:08.187Z,205.3
2022-08-09T13:48:10.587Z,1351.1
2022-08-09T13:53:16.276Z,471
2022-08-09T13:58:20.881Z,540.6
2022-08-09T14:04:04.042Z,552.2
2022-08-09T14:08:33.259Z,699.4
2022-08-09T14:14:16.915Z,405.7
2022-08-09T14:18:36.049Z,137.9
2022-08-09T14:23:39.963Z,207.8
2022-08-09T14:28:48.471Z,75.6
2022-08-09T14:33:52.361Z,532.8
2022-08-09T14:38:58.674Z,577.5
2022-08-09T14:44:09.538Z,587.9
2022-08-09T14:49:12.058Z,717.5
2022-08-09T14:54:13.181Z,1060.9
2022-08-09T14:59:18.935Z,1074.7
2022-08-09T15:04:28.341Z,1001.6
2022-08-09T15:10:04.277Z,1041.7
2022-08-09T15:14:38.412Z,976
2022-08-09T15:19:54.731Z,1061.7
2022-08-09T15:24:44.456Z,1160.6
2022-08-09T15:30:47.774Z,1137.1
2022-08-09T15:34:59.147Z,1245.8
2022-08-09T15:40:04.654Z,1204.5
2022-08-09T15:45:05.163Z,1160.5
2022-08-09T15:50:10.868Z,977
2022-08-09T15:55:16.620Z,803.8
2022-08-09T16:00:26.010Z,618.2
2022-08-09T16:05:36.499Z,423.9
2022-08-09T16:10:39.084Z,284.1
2022-08-09T16:16:03.983Z,330.4
2022-08-09T16:20:48.241Z,175.3
2022-08-09T16:25:50.539Z,176.4
2022-08-09T16:30:58.600Z,186.8
2022-08-09T16:35:55.973Z,262.4
2022-08-09T16:40:58.375Z,160
2022-08-09T16:46:04.465Z,170
2022-08-09T16:51:13.611Z,121.1
2022-08-09T16:56:16.743Z,90.9
2022-08-09T17:01:23.711Z,151.2
2022-08-09T17:06:29.531Z,112.3
2022-08-09T17:11:32.816Z,62.3
2022-08-09T17:16:27.846Z,78.1
2022-08-09T17:21:37.768Z,90.2
2022-08-09T17:26:47.639Z,89.9
2022-08-09T17:31:55.576Z,115.4
2022-08-09T17:37:02.481Z,113.6
2022-08-09T17:42:08.905Z,100.5
2022-08-09T17:47:10.562Z,120.1
2022-08-09T17:52:19.647Z,124
2022-08-09T17:57:20.482Z,126.5
2022-08-09T18:02:25.660Z,103.9
2022-08-09T18:07:30.369Z,75.7
2022-08-09T18:12:40.374Z,127.7
2022-08-09T18:18:03.102Z,85.9
2022-08-09T18:22:54.358Z,121
2022-08-09T18:28:02.516Z,118.4
2022-08-09T18:33:12.883Z,33.4
2022-08-09T18:38:13.970Z,77.6
2022-08-09T18:43:16.617Z,69
2022-08-09T18:48:22.874Z,143.2
2022-08-09T18:53:26.229Z,117
2022-08-09T18:58:32.354Z,119.2
2022-08-09T19:03:29.677Z,169.5
2022-08-09T19:08:29.807Z,136.3
2022-08-09T19:13:38.156Z,194.9
2022-08-09T19:18:37.611Z,195.9
2022-08-09T19:24:31.335Z,288.3
2022-08-09T19:28:48.729Z,86.9
2022-08-09T19:33:52.391Z,180.7
2022-08-09T19:38:55.252Z,326.6
2022-08-09T19:43:57.802Z,226.1
2022-08-09T19:50:04.657Z,118.5
2022-08-09T19:54:09.567Z,56.8
2022-08-09T19:59:18.680Z,166.3
2022-08-09T20:04:33.366Z,105.7
2022-08-09T20:09:43.937Z,158.6
2022-08-09T20:14:28.261Z,261.6
2022-08-09T20:19:43.503Z,275.8
2022-08-09T20:24:36.640Z,1059.3
2022-08-09T20:29:41.412Z,650
2022-08-09T20:34:46.596Z,681.3
2022-08-09T20:40:14.284Z,704.1
2022-08-09T20:45:28.425Z,604
2022-08-09T20:50:05.958Z,381.2
2022-08-09T20:55:08.158Z,708
2022-08-09T21:00:19.747Z,804.3
2022-08-09T21:05:50.604Z,839.6
2022-08-09T21:10:30.397Z,775.8
2022-08-09T21:15:36.469Z,822.7
2022-08-09T21:20:41.616Z,852.6
2022-08-09T21:25:54.148Z,786.6
2022-08-09T21:30:53.991Z,704.9
2022-08-09T21:35:58.034Z,645.3
2022-08-09T21:40:59.921Z,647.5
2022-08-09T21:46:08.042Z,696.7
2022-08-09T21:51:16.655Z,723.1
2022-08-09T21:56:34.202Z,427.1
2022-08-09T22:01:45.146Z,526
2022-08-09T22:06:34.496Z,582.6
2022-08-09T22:11:50.811Z,705.9
2022-08-09T22:16:43.425Z,389.7
2022-08-09T22:21:50.349Z,639
2022-08-09T22:26:57.141Z,688.8
2022-08-09T22:31:59.638Z,684.7
2022-08-09T22:37:02.140Z,635.2
2022-08-09T22:42:02.227Z,599.3
2022-08-09T22:48:05.554Z,354.9
2022-08-09T22:52:10.069Z,127.7
2022-08-09T22:57:19.404Z,183.7
2022-08-09T23:02:29.242Z,171.1
2022-08-09T23:08:23.516Z,195.7
2022-08-09T23:12:33.769Z,117.4
2022-08-09T23:17:36.438Z,226.2
2022-08-09T23:22:38.959Z,136.9
2022-08-09T23:27:56.543Z,169.6
2022-08-09T23:32:47.940Z,180.5
2022-08-09T23:37:50.363Z,206.8
2022-08-09T23:42:52.663Z,345.5
2022-08-09T23:47:55.199Z,203.7
2022-08-09T23:52:57.882Z,224.9
2022-08-09T23:58:06.687Z,219.8
